Time;durP1;ratioP1;P1;durP2;ratioP2;P2;SDS_P1;SDS_P2;PMS_P1;PMS_P2;Temp;Humidity;BMP_temperature;BMP_pressure;BME280_temperature;BME280_humidity;BME280_pressure;Samples;Min_cycle;Max_cycle;Signal;HPM_P1;HPM_P2
2021/01/09 00:02:09;;;;;;;17.47;11.20;;;2.60;99.90;;;;;;5072632;28;20210;-69
2021/01/09 00:04:34;;;;;;;19.77;13.80;;;2.60;99.90;;;;;;5073129;28;20179;-68
2021/01/09 00:07:00;;;;;;;16.30;11.60;;;2.50;99.90;;;;;;5073003;28;20172;-69
2021/01/09 00:09:25;;;;;;;21.87;13.60;;;2.40;99.90;;;;;;5073070;28;20237;-68
2021/01/09 00:11:51;;;;;;;18.33;12.17;;;2.50;99.90;;;;;;5073498;28;20756;-69
2021/01/09 00:14:19;;;;;;;15.30;10.93;;;2.30;8.90;;;;;;5072945;28;20171;-68
2021/01/09 00:16:48;;;;;;;17.42;12.15;;;2.60;1.00;;;;;;5072881;28;20305;-68
2021/01/09 00:19:14;;;;;;;16.90;10.70;;;2.60;99.90;;;;;;5072751;28;20580;-69
2021/01/09 00:21:40;;;;;;;18.07;11.73;;;2.60;99.90;;;;;;5072906;28;20318;-69
2021/01/09 00:24:09;;;;;;;18.60;10.30;;;2.30;1.00;;;;;;5073001;28;20413;-68
2021/01/09 00:26:35;;;;;;;14.35;10.68;;;2.50;99.90;;;;;;5073101;28;20167;-68
2021/01/09 00:29:02;;;;;;;17.13;9.93;;;2.60;1.00;;;;;;5072717;28;20191;-69
2021/01/09 00:31:27;;;;;;;19.65;11.45;;;2.70;99.90;;;;;;5072874;28;20537;-69
2021/01/09 00:33:53;;;;;;;16.10;11.17;;;2.60;99.90;;;;;;5073004;28;20203;-68
2021/01/09 00:36:18;;;;;;;14.90;9.80;;;2.40;1.00;;;;;;5072734;28;20174;-68
2021/01/09 00:38:44;;;;;;;15.47;10.57;;;2.40;99.90;;;;;;5072481;28;20196;-68
2021/01/09 00:41:10;;;;;;;15.97;10.50;;;2.20;1.00;;;;;;5072599;28;20172;-69
2021/01/09 00:43:35;;;;;;;14.13;9.47;;;2.50;99.90;;;;;;5072830;28;20182;-67
2021/01/09 00:46:01;;;;;;;12.73;8.93;;;2.60;99.90;;;;;;5072827;28;20168;-68
2021/01/09 00:48:26;;;;;;;17.93;10.57;;;2.70;99.90;;;;;;5072557;28;20593;-68
2021/01/09 00:50:52;;;;;;;11.53;9.07;;;2.70;1.00;;;;;;5072406;28;20616;-68
2021/01/09 00:53:17;;;;;;;15.23;9.83;;;2.60;1.00;;;;;;5072399;28;20656;-68
2021/01/09 00:55:45;;;;;;;14.93;10.13;;;2.70;1.00;;;;;;5072383;28;20652;-68
2021/01/09 00:58:10;;;;;;;15.48;10.18;;;2.60;99.90;;;;;;5072364;28;20164;-69
2021/01/09 01:00:36;;;;;;;13.50;9.23;;;2.50;1.00;;;;;;5072767;28;20564;-68
2021/01/09 01:03:01;;;;;;;13.77;9.90;;;2.50;1.00;;;;;;5072879;28;20494;-69
2021/01/09 01:05:27;;;;;;;13.87;9.80;;;2.30;1.00;;;;;;5072596;28;20596;-69
2021/01/09 01:07:52;;;;;;;13.83;9.13;;;2.60;66.30;;;;;;5072363;28;20175;-67
2021/01/09 01:10:18;;;;;;;18.13;10.03;;;2.50;99.90;;;;;;5072221;28;20192;-69
2021/01/09 01:12:43;;;;;;;17.03;10.30;;;2.70;69.50;;;;;;5072202;28;20514;-68
2021/01/09 01:15:09;;;;;;;18.53;9.73;;;2.70;1.00;;;;;;5074248;28;20168;-68
2021/01/09 01:17:35;;;;;;;12.63;9.70;;;2.60;99.90;;;;;;5075801;28;20176;-68
2021/01/09 01:20:01;;;;;;;14.43;9.53;;;2.50;1.00;;;;;;5076608;28;20273;-68
2021/01/09 01:22:26;;;;;;;10.80;8.10;;;2.60;1.00;;;;;;5076922;28;20160;-69
2021/01/09 01:24:52;;;;;;;15.53;9.37;;;2.70;99.90;;;;;;5076567;28;20164;-69
2021/01/09 01:27:17;;;;;;;15.70;8.80;;;2.80;99.90;;;;;;5075725;28;20172;-68
2021/01/09 01:29:43;;;;;;;16.87;10.20;;;2.80;1.00;;;;;;5075882;28;20184;-68
2021/01/09 01:32:09;;;;;;;11.43;8.77;;;2.60;16.50;;;;;;5075593;28;20172;-68
2021/01/09 01:34:35;;;;;;;11.80;8.53;;;2.50;99.90;;;;;;5075596;28;20171;-68
2021/01/09 01:37:00;;;;;;;15.10;10.53;;;2.30;1.00;;;;;;5075835;28;20184;-69
2021/01/09 01:39:26;;;;;;;15.20;10.43;;;2.50;39.30;;;;;;5075374;28;20427;-67
2021/01/09 01:41:54;;;;;;;13.37;9.10;;;2.70;1.00;;;;;;5074191;28;20536;-69
2021/01/09 01:44:20;;;;;;;13.48;9.43;;;2.90;1.00;;;;;;5075653;28;20637;-68
2021/01/09 01:46:46;;;;;;;14.33;9.00;;;2.50;99.90;;;;;;5075366;28;20171;-69
2021/01/09 01:49:13;;;;;;;13.73;9.85;;;2.50;99.90;;;;;;5075130;28;20208;-68
2021/01/09 01:51:39;;;;;;;13.35;8.80;;;2.90;99.90;;;;;;5075270;28;20173;-68
2021/01/09 01:54:05;;;;;;;13.23;10.20;;;3.00;99.90;;;;;;5075247;28;20222;-69
2021/01/09 01:56:30;;;;;;;13.40;9.23;;;2.80;99.90;;;;;;5075487;28;20617;-69
2021/01/09 01:58:56;;;;;;;14.20;9.87;;;2.90;1.00;;;;;;5075017;28;20453;-68
2021/01/09 02:01:22;;;;;;;14.50;9.47;;;3.10;99.90;;;;;;5075080;28;20171;-69
2021/01/09 02:03:48;;;;;;;17.15;12.52;;;2.90;18.80;;;;;;5075026;28;20250;-68
2021/01/09 02:06:22;;;;;;;18.70;11.77;;;2.70;17.30;;;;;;5075002;28;20204;-68
2021/01/09 02:09:09;;;;;;;17.02;11.68;;;2.60;99.90;;;;;;5075022;28;20162;-69
2021/01/09 02:12:04;;;;;;;17.45;11.55;;;2.50;99.90;;;;;;5075001;28;20210;-68
2021/01/09 02:14:41;;;;;;;17.27;10.65;;;2.70;70.90;;;;;;5073474;28;20651;-69
2021/01/09 02:17:07;;;;;;;18.02;11.43;;;2.90;1.00;;;;;;5074853;28;20159;-68
2021/01/09 02:19:36;;;;;;;16.33;10.55;;;3.00;1.00;;;;;;5074836;28;20208;-69
2021/01/09 02:22:04;;;;;;;18.05;11.88;;;3.00;82.00;;;;;;5074698;28;20172;-68
2021/01/09 02:24:30;;;;;;;16.15;10.68;;;3.00;99.90;;;;;;5074652;28;20551;-68
2021/01/09 02:26:56;;;;;;;15.13;10.23;;;2.90;99.90;;;;;;5074346;28;20240;-67
2021/01/09 02:29:24;;;;;;;19.75;11.05;;;2.80;99.90;;;;;;5074478;28;20218;-68
2021/01/09 02:31:57;;;;;;;18.63;11.40;;;2.80;99.90;;;;;;5074833;28;20176;-69
2021/01/09 02:34:25;;;;;;;15.35;9.90;;;2.80;1.00;;;;;;5074770;28;20156;-69
2021/01/09 02:36:51;;;;;;;13.50;9.30;;;2.90;99.90;;;;;;5074717;28;20613;-69
2021/01/09 02:39:17;;;;;;;12.90;10.27;;;2.90;99.90;;;;;;5074492;28;20249;-68
2021/01/09 02:41:48;;;;;;;18.45;10.90;;;3.10;99.90;;;;;;5074349;28;20422;-68
2021/01/09 02:44:14;;;;;;;17.98;11.13;;;3.10;1.00;;;;;;5074732;28;20222;-69
2021/01/09 02:46:40;;;;;;;12.63;9.88;;;3.00;1.00;;;;;;5074504;28;20251;-68
2021/01/09 02:49:06;;;;;;;17.37;12.33;;;2.80;99.90;;;;;;5074022;28;20290;-68
2021/01/09 02:51:33;;;;;;;12.83;8.97;;;2.80;99.90;;;;;;5074122;28;20410;-68
2021/01/09 02:53:58;;;;;;;17.48;10.02;;;2.70;99.90;;;;;;5074055;28;20410;-68
2021/01/09 02:56:24;;;;;;;16.77;10.47;;;2.50;99.90;;;;;;5074359;28;20590;-68
2021/01/09 02:58:49;;;;;;;14.13;10.10;;;2.60;99.90;;;;;;5073896;28;20199;-68
2021/01/09 03:01:15;;;;;;;14.27;9.70;;;2.70;99.90;;;;;;5073977;28;20164;-68
2021/01/09 03:03:41;;;;;;;17.30;10.97;;;2.60;1.00;;;;;;5074088;28;20643;-69
2021/01/09 03:06:06;;;;;;;12.70;9.80;;;2.50;67.80;;;;;;5073832;28;20247;-68
2021/01/09 03:08:32;;;;;;;17.60;11.43;;;2.60;99.90;;;;;;5074060;28;20168;-69
2021/01/09 03:10:57;;;;;;;16.70;10.60;;;2.50;97.90;;;;;;5073766;28;20176;-68
2021/01/09 03:13:23;;;;;;;18.20;10.40;;;2.30;1.00;;;;;;5073752;28;20251;-68
2021/01/09 03:15:48;;;;;;;13.83;10.03;;;2.60;99.90;;;;;;5073984;28;20165;-68
2021/01/09 03:18:14;;;;;;;19.10;11.03;;;2.70;99.90;;;;;;5073690;28;20243;-69
2021/01/09 03:20:40;;;;;;;17.03;11.20;;;2.50;1.00;;;;;;5073417;28;20278;-69
2021/01/09 03:23:05;;;;;;;16.67;11.23;;;2.40;1.00;;;;;;5073502;28;20169;-68
2021/01/09 03:25:31;;;;;;;21.97;11.80;;;2.50;99.90;;;;;;5073737;28;20614;-68
2021/01/09 03:27:56;;;;;;;19.50;11.60;;;2.80;1.00;;;;;;5073439;28;20510;-68
2021/01/09 03:30:23;;;;;;;16.30;10.13;;;2.90;99.90;;;;;;5073385;28;20191;-69
2021/01/09 03:32:49;;;;;;;23.02;13.05;;;2.90;99.90;;;;;;5073413;28;20176;-68
2021/01/09 03:35:14;;;;;;;19.20;11.40;;;2.70;99.90;;;;;;5073452;28;20194;-69
2021/01/09 03:37:40;;;;;;;19.80;12.27;;;2.70;1.00;;;;;;5072842;28;20472;-68
2021/01/09 03:40:06;;;;;;;19.60;11.97;;;2.70;1.00;;;;;;5073266;28;20211;-68
2021/01/09 03:42:33;;;;;;;20.30;12.23;;;2.90;1.00;;;;;;5073074;28;20172;-68
2021/01/09 03:44:59;;;;;;;19.48;10.68;;;2.90;99.90;;;;;;5073381;28;20203;-68
2021/01/09 03:47:24;;;;;;;25.20;11.25;;;2.70;99.90;;;;;;5073422;28;20226;-68
2021/01/09 03:49:50;;;;;;;24.53;13.03;;;2.60;99.90;;;;;;5072867;28;20215;-68
2021/01/09 03:52:15;;;;;;;20.43;11.90;;;2.70;99.90;;;;;;5073038;28;20176;-69
2021/01/09 03:54:41;;;;;;;19.83;11.60;;;2.80;1.00;;;;;;5073165;28;20633;-68
2021/01/09 03:57:07;;;;;;;18.87;12.80;;;2.80;24.20;;;;;;5073283;28;20167;-68
2021/01/09 03:59:32;;;;;;;22.97;12.83;;;2.90;1.00;;;;;;5073215;28;20242;-68
2021/01/09 04:01:58;;;;;;;18.63;12.07;;;2.90;99.90;;;;;;5073228;28;20183;-68
2021/01/09 04:04:24;;;;;;;23.00;13.37;;;3.10;99.90;;;;;;5072984;28;20168;-68
2021/01/09 04:06:49;;;;;;;26.43;13.00;;;2.70;1.00;;;;;;5073173;28;20201;-68
2021/01/09 04:09:15;;;;;;;25.33;13.47;;;3.00;1.00;;;;;;5072868;28;20192;-69
2021/01/09 04:11:40;;;;;;;31.63;14.77;;;2.80;99.90;;;;;;5072864;28;20191;-69
2021/01/09 04:14:06;;;;;;;28.40;14.17;;;2.70;99.90;;;;;;5073122;28;20234;-68
2021/01/09 04:16:35;;;;;;;27.60;13.47;;;2.50;1.00;;;;;;5073127;28;20190;-69
2021/01/09 04:19:01;;;;;;;26.73;13.00;;;2.70;99.90;;;;;;5072837;28;20215;-69
2021/01/09 04:21:26;;;;;;;25.73;13.40;;;2.80;99.90;;;;;;5072673;28;20164;-68
2021/01/09 04:23:52;;;;;;;31.80;15.97;;;3.00;1.00;;;;;;5072656;28;20519;-69
2021/01/09 04:26:17;;;;;;;29.07;13.90;;;2.90;99.90;;;;;;5072665;28;20659;-68
2021/01/09 04:28:43;;;;;;;31.93;16.00;;;3.20;99.90;;;;;;5072579;28;20172;-69
2021/01/09 04:31:08;;;;;;;27.23;15.27;;;2.80;1.00;;;;;;5072740;28;20206;-68
2021/01/09 04:33:34;;;;;;;27.63;14.87;;;2.60;1.00;;;;;;5072935;28;20179;-68
2021/01/09 04:35:59;;;;;;;31.80;14.70;;;2.70;99.90;;;;;;5072672;28;20172;-69
2021/01/09 04:38:25;;;;;;;26.77;14.03;;;2.80;99.90;;;;;;5072522;28;20656;-69
2021/01/09 04:40:50;;;;;;;32.17;15.03;;;3.00;99.90;;;;;;5072410;28;20195;-68
2021/01/09 04:43:19;;;;;;;30.97;15.60;;;3.10;99.90;;;;;;5072504;28;20226;-68
2021/01/09 04:45:48;;;;;;;31.50;16.30;;;2.80;99.90;;;;;;5072596;28;20160;-69
2021/01/09 04:48:14;;;;;;;28.23;16.15;;;2.80;1.00;;;;;;5073018;28;20661;-67
2021/01/09 04:50:40;;;;;;;28.63;16.47;;;2.50;1.00;;;;;;5076443;28;20184;-69
2021/01/09 04:53:11;;;;;;;27.63;15.95;;;2.50;1.00;;;;;;5076752;28;20410;-68
2021/01/09 04:55:38;;;;;;;33.03;14.77;;;2.50;1.00;;;;;;5076646;28;20621;-68
2021/01/09 04:58:03;;;;;;;26.40;14.30;;;2.70;1.00;;;;;;5076735;28;20234;-68
2021/01/09 05:00:29;;;;;;;30.53;14.80;;;2.70;1.00;;;;;;5076067;28;20199;-69
2021/01/09 05:02:57;;;;;;;30.27;15.05;;;3.00;1.00;;;;;;5076404;28;20172;-68
2021/01/09 05:05:22;;;;;;;29.60;15.23;;;2.70;1.00;;;;;;5076360;28;20247;-69
2021/01/09 05:07:48;;;;;;;31.00;15.50;;;2.90;99.90;;;;;;5076113;28;20679;-69
2021/01/09 05:10:13;;;;;;;27.60;15.73;;;2.90;1.00;;;;;;5076049;28;20692;-68
2021/01/09 05:12:40;;;;;;;31.07;14.90;;;3.00;99.90;;;;;;5076210;28;20233;-68
2021/01/09 05:15:06;;;;;;;27.30;15.02;;;2.80;99.90;;;;;;5076291;28;20175;-68
2021/01/09 05:17:37;;;;;;;29.38;14.88;;;2.40;1.00;;;;;;5076172;28;20200;-69
2021/01/09 05:20:07;;;;;;;30.67;15.40;;;2.20;1.00;;;;;;5076641;28;20236;-68
2021/01/09 05:22:36;;;;;;;25.23;14.00;;;2.00;99.00;;;;;;5076159;28;20176;-68
2021/01/09 05:25:02;;;;;;;34.70;15.63;;;2.30;99.90;;;;;;5075724;28;20168;-68
2021/01/09 05:27:29;;;;;;;28.15;16.42;;;2.60;49.60;;;;;;5075797;28;20247;-68
2021/01/09 05:29:55;;;;;;;28.23;13.98;;;2.50;99.90;;;;;;5075777;28;20689;-69
2021/01/09 05:32:22;;;;;;;30.25;15.60;;;2.40;99.90;;;;;;5075548;28;20175;-68
2021/01/09 05:34:49;;;;;;;27.52;15.75;;;2.50;99.90;;;;;;5075621;28;20191;-69
2021/01/09 05:37:21;;;;;;;29.98;15.27;;;2.60;1.00;;;;;;5075741;28;20168;-69
2021/01/09 05:39:56;;;;;;;30.25;14.82;;;2.60;1.00;;;;;;5075388;28;20698;-68
2021/01/09 05:42:28;;;;;;;33.22;16.58;;;2.60;1.00;;;;;;5075409;28;20633;-68
2021/01/09 05:44:56;;;;;;;31.20;15.38;;;2.50;99.90;;;;;;5075408;28;20518;-68
2021/01/09 05:47:27;;;;;;;30.00;14.80;;;2.60;99.90;;;;;;5075561;28;20160;-68
2021/01/09 05:49:57;;;;;;;30.50;16.73;;;2.30;99.90;;;;;;5075099;28;20303;-69
2021/01/09 05:52:24;;;;;;;26.85;14.70;;;2.40;99.90;;;;;;5075245;28;20608;-67
2021/01/09 05:54:56;;;;;;;29.20;15.13;;;2.50;1.00;;;;;;5075027;28;20186;-68
2021/01/09 05:57:28;;;;;;;30.48;16.00;;;2.50;1.00;;;;;;5075253;28;20175;-69
2021/01/09 05:59:57;;;;;;;31.52;15.57;;;2.30;99.90;;;;;;5074490;28;20249;-68
2021/01/09 06:02:24;;;;;;;33.63;16.73;;;2.20;99.90;;;;;;5074884;28;20716;-67
2021/01/09 06:04:55;;;;;;;31.80;17.67;;;2.10;99.90;;;;;;5075024;28;20186;-69
2021/01/09 06:07:24;;;;;;;30.13;15.77;;;2.20;1.00;;;;;;5075386;28;20581;-68
2021/01/09 06:10:07;;;;;;;31.00;17.15;;;2.10;99.90;;;;;;5075028;28;20278;-68
2021/01/09 06:12:36;;;;;;;30.55;16.10;;;2.30;1.00;;;;;;5075197;28;20164;-68
2021/01/09 06:15:04;;;;;;;36.20;17.55;;;2.50;1.00;;;;;;5074808;28;20227;-68
2021/01/09 06:17:32;;;;;;;30.80;15.98;;;2.60;99.90;;;;;;5074782;28;20355;-68
2021/01/09 06:19:58;;;;;;;28.85;14.77;;;2.70;1.00;;;;;;5074498;28;20207;-68
2021/01/09 06:22:26;;;;;;;29.15;14.93;;;2.70;1.00;;;;;;5074602;28;20165;-68
2021/01/09 06:24:51;;;;;;;27.25;15.63;;;2.60;99.90;;;;;;5074606;28;20164;-68
2021/01/09 06:27:21;;;;;;;28.40;15.00;;;2.40;1.00;;;;;;5074696;28;20183;-69
2021/01/09 06:29:49;;;;;;;27.55;13.82;;;2.50;99.90;;;;;;5074723;28;20537;-68
2021/01/09 06:32:18;;;;;;;32.08;15.73;;;2.50;99.90;;;;;;5074810;28;20180;-68
2021/01/09 06:34:48;;;;;;;30.13;15.65;;;2.80;1.00;;;;;;5074428;28;20173;-68
2021/01/09 06:37:21;;;;;;;35.40;16.15;;;2.90;1.00;;;;;;5074718;28;20229;-68
2021/01/09 06:39:49;;;;;;;31.77;15.95;;;2.90;1.00;;;;;;5074530;28;20600;-68
2021/01/09 06:42:17;;;;;;;28.45;15.48;;;2.80;1.00;;;;;;5074212;28;20179;-68
2021/01/09 06:44:53;;;;;;;31.85;17.98;;;2.70;1.00;;;;;;5074139;28;20168;-68
2021/01/09 06:47:30;;;;;;;31.95;16.45;;;2.70;1.00;;;;;;5074472;28;20659;-68
2021/01/09 06:50:18;;;;;;;37.25;17.17;;;2.60;91.30;;;;;;5073895;28;20557;-68
2021/01/09 06:52:58;;;;;;;35.30;17.30;;;2.80;99.90;;;;;;5073954;28;20210;-68
2021/01/09 06:55:36;;;;;;;32.58;16.27;;;2.70;99.90;;;;;;5074206;28;20314;-68
2021/01/09 06:58:06;;;;;;;27.92;15.00;;;2.70;99.90;;;;;;5074845;28;20176;-69
2021/01/09 07:00:31;;;;;;;32.38;16.40;;;2.50;1.00;;;;;;5073757;28;20261;-68
2021/01/09 07:03:14;;;;;;;32.40;16.13;;;2.50;1.00;;;;;;5073904;28;20243;-68
2021/01/09 07:05:43;;;;;;;30.73;15.25;;;2.60;1.00;;;;;;5073945;28;20413;-68
2021/01/09 07:08:09;;;;;;;36.63;17.77;;;2.70;99.90;;;;;;5073943;28;20574;-67
2021/01/09 07:10:43;;;;;;;36.53;16.40;;;2.90;99.90;;;;;;5073857;28;20286;-69
2021/01/09 07:13:10;;;;;;;36.05;17.85;;;2.90;99.90;;;;;;5072949;28;20167;-68
2021/01/09 07:15:37;;;;;;;47.30;17.85;;;2.80;1.00;;;;;;5073781;28;20537;-69
2021/01/09 07:18:06;;;;;;;42.47;17.90;;;2.60;94.60;;;;;;5073411;28;20194;-68
2021/01/09 07:20:54;;;;;;;32.22;16.52;;;2.70;1.00;;;;;;5072908;28;20212;-69
2021/01/09 07:23:21;;;;;;;36.42;17.45;;;2.70;99.90;;;;;;5073619;28;20167;-68
2021/01/09 07:25:47;;;;;;;37.25;17.65;;;2.60;31.70;;;;;;5073383;28;20175;-69
2021/01/09 07:28:13;;;;;;;33.05;16.42;;;2.90;99.90;;;;;;5073551;28;20176;-69
2021/01/09 07:30:39;;;;;;;35.03;17.33;;;2.80;1.00;;;;;;5073371;28;20559;-68
2021/01/09 07:33:09;;;;;;;34.72;17.25;;;2.50;1.00;;;;;;5073373;28;20223;-68
2021/01/09 07:35:37;;;;;;;41.00;16.73;;;2.70;99.90;;;;;;5073186;28;20144;-68
2021/01/09 07:38:05;;;;;;;37.83;16.65;;;2.80;99.90;;;;;;5073543;28;20191;-68
2021/01/09 07:40:42;;;;;;;36.80;17.20;;;2.60;99.90;;;;;;5072977;28;20195;-68
2021/01/09 07:43:35;;;;;;;43.38;16.17;;;2.70;1.00;;;;;;5073080;28;20163;-68
2021/01/09 07:46:02;;;;;;;35.55;17.40;;;2.60;1.00;;;;;;5073383;28;20168;-69
2021/01/09 07:48:32;;;;;;;40.78;18.85;;;2.60;99.90;;;;;;5072905;28;20661;-68
2021/01/09 07:50:58;;;;;;;34.55;18.15;;;2.70;99.90;;;;;;5073302;28;20546;-68
2021/01/09 07:53:26;;;;;;;40.10;17.50;;;2.90;99.90;;;;;;5072868;28;20177;-69
2021/01/09 07:55:53;;;;;;;39.35;17.77;;;2.90;1.00;;;;;;5073085;28;20160;-68
2021/01/09 07:58:38;;;;;;;36.53;17.85;;;3.10;1.00;;;;;;5073172;28;20621;-68
2021/01/09 08:01:04;;;;;;;37.88;18.30;;;2.70;99.90;;;;;;5072795;28;20230;-69
2021/01/09 08:03:32;;;;;;;39.83;19.27;;;2.60;99.90;;;;;;5073413;28;20172;-69
2021/01/09 08:05:58;;;;;;;36.63;18.20;;;2.50;99.90;;;;;;5073395;28;20168;-68
2021/01/09 08:08:25;;;;;;;41.40;18.38;;;2.40;99.90;;;;;;5072941;28;20196;-68
2021/01/09 08:10:50;;;;;;;45.22;20.00;;;2.50;1.00;;;;;;5072678;28;20187;-68
2021/01/09 08:13:17;;;;;;;41.20;19.00;;;2.50;99.90;;;;;;5072823;28;20168;-68
2021/01/09 08:15:43;;;;;;;42.75;19.98;;;2.50;1.00;;;;;;5072748;28;20259;-66
2021/01/09 08:18:10;;;;;;;37.13;19.58;;;2.60;1.00;;;;;;5072831;28;20266;-68
2021/01/09 08:20:36;;;;;;;40.50;18.35;;;2.60;1.00;;;;;;5072805;28;20211;-68
2021/01/09 08:23:04;;;;;;;38.93;20.23;;;2.70;1.00;;;;;;5073389;28;20655;-68
2021/01/09 08:25:31;;;;;;;36.67;20.05;;;2.90;99.90;;;;;;5079851;28;20403;-68
2021/01/09 08:28:01;;;;;;;46.00;22.35;;;2.90;1.00;;;;;;5080519;28;20233;-68
2021/01/09 08:30:29;;;;;;;42.42;19.73;;;2.90;99.90;;;;;;5079204;28;20183;-68
2021/01/09 08:33:08;;;;;;;39.08;18.65;;;2.70;99.90;;;;;;5079615;28;20659;-68
2021/01/09 08:35:36;;;;;;;42.42;21.75;;;2.80;1.00;;;;;;5079419;28;20160;-68
2021/01/09 08:38:03;;;;;;;41.00;20.30;;;2.90;99.90;;;;;;5079342;28;20175;-68
2021/01/09 08:40:28;;;;;;;48.50;20.00;;;3.00;99.90;;;;;;5079198;28;20278;-68
2021/01/09 08:43:07;;;;;;;40.00;18.77;;;3.30;99.90;;;;;;5079277;28;20203;-69
2021/01/09 08:45:49;;;;;;;32.05;16.60;;;3.30;1.00;;;;;;5079143;28;20160;-68
2021/01/09 08:48:22;;;;;;;43.20;21.50;;;3.10;21.90;;;;;;5079205;28;20179;-68
2021/01/09 08:50:56;;;;;;;37.33;20.48;;;3.20;1.00;;;;;;5079385;28;20688;-68
2021/01/09 08:53:22;;;;;;;39.33;18.52;;;3.10;99.90;;;;;;5079073;28;20231;-68
2021/01/09 08:55:51;;;;;;;33.37;15.60;;;3.20;99.90;;;;;;5079122;28;20579;-67
2021/01/09 08:58:17;;;;;;;38.20;18.70;;;3.00;1.00;;;;;;5079629;28;20460;-68
2021/01/09 09:00:42;;;;;;;39.03;17.57;;;3.00;99.90;;;;;;5079554;28;20596;-68
2021/01/09 09:03:10;;;;;;;40.70;19.33;;;3.20;99.90;;;;;;5079116;28;20376;-68
2021/01/09 09:05:39;;;;;;;38.13;19.92;;;3.30;99.90;;;;;;5078658;28;20744;-68
2021/01/09 09:08:09;;;;;;;37.75;19.13;;;3.40;99.90;;;;;;5078777;28;20168;-68
2021/01/09 09:10:35;;;;;;;41.80;17.45;;;3.10;99.90;;;;;;5078709;28;20692;-69
2021/01/09 09:13:23;;;;;;;35.67;16.70;;;3.00;99.90;;;;;;5078654;28;20176;-68
2021/01/09 09:15:49;;;;;;;43.53;19.35;;;3.30;78.20;;;;;;5078949;28;20160;-69
2021/01/09 09:18:16;;;;;;;37.30;19.75;;;3.30;1.00;;;;;;5078836;28;20326;-69
2021/01/09 09:20:50;;;;;;;32.40;17.33;;;3.40;1.00;;;;;;5078355;28;20215;-69
2021/01/09 09:23:17;;;;;;;35.15;17.90;;;3.40;1.00;;;;;;5078730;28;20178;-69
2021/01/09 09:25:42;;;;;;;34.22;16.83;;;3.40;1.00;;;;;;5078679;28;20537;-67
2021/01/09 09:28:08;;;;;;;39.80;17.93;;;3.30;99.90;;;;;;5078371;28;20168;-68
2021/01/09 09:30:34;;;;;;;31.13;15.50;;;3.00;26.20;;;;;;5078376;28;20192;-68
2021/01/09 09:33:13;;;;;;;31.80;17.33;;;3.30;1.00;;;;;;5078631;28;20540;-68
2021/01/09 09:35:39;;;;;;;42.55;18.75;;;3.50;1.00;;;;;;5075833;28;20529;-68
2021/01/09 09:38:06;;;;;;;46.28;17.90;;;3.30;41.90;;;;;;5075659;28;20172;-68
2021/01/09 09:40:33;;;;;;;33.33;18.30;;;3.50;1.00;;;;;;5075279;28;20279;-68
2021/01/09 09:43:16;;;;;;;35.63;18.30;;;3.80;1.00;;;;;;5075266;28;20192;-68
2021/01/09 09:45:57;;;;;;;36.45;18.10;;;4.00;99.90;;;;;;5075242;28;20171;-68
2021/01/09 09:48:48;;;;;;;33.83;17.38;;;3.40;1.00;;;;;;5075328;28;20183;-68
2021/01/09 09:51:14;;;;;;;41.70;18.33;;;3.10;7.80;;;;;;5075701;28;20635;-68
2021/01/09 09:53:48;;;;;;;40.20;18.67;;;3.40;99.90;;;;;;5075000;28;20597;-68
2021/01/09 09:56:22;;;;;;;33.08;17.58;;;3.80;87.10;;;;;;5075721;28;20152;-66
2021/01/09 09:58:59;;;;;;;36.22;18.00;;;3.70;86.80;;;;;;5075300;28;20588;-68
2021/01/09 10:01:24;;;;;;;35.15;18.83;;;3.70;99.90;;;;;;5075318;28;20183;-68
2021/01/09 10:03:51;;;;;;;36.37;17.73;;;3.70;77.30;;;;;;5074958;28;20576;-67
2021/01/09 10:06:17;;;;;;;40.47;18.85;;;3.80;1.00;;;;;;5075037;28;20222;-68
2021/01/09 10:08:43;;;;;;;40.35;17.33;;;3.50;1.00;;;;;;5075120;28;20571;-68
2021/01/09 10:11:09;;;;;;;36.55;18.20;;;3.70;1.00;;;;;;5074849;28;20172;-69
2021/01/09 10:13:36;;;;;;;39.70;19.93;;;3.80;1.00;;;;;;5074933;28;20190;-68
2021/01/09 10:16:02;;;;;;;38.65;16.55;;;3.60;1.00;;;;;;5075031;28;20424;-68
2021/01/09 10:18:29;;;;;;;36.03;18.77;;;3.90;1.00;;;;;;5074754;28;20192;-68
2021/01/09 10:20:56;;;;;;;33.78;17.08;;;3.40;1.00;;;;;;5075021;28;20203;-68
2021/01/09 10:23:22;;;;;;;42.00;19.38;;;3.30;1.00;;;;;;5075011;28;20264;-68
2021/01/09 10:25:48;;;;;;;35.10;16.80;;;3.50;11.60;;;;;;5075024;28;20222;-68
2021/01/09 10:28:14;;;;;;;33.63;17.10;;;3.80;1.00;;;;;;5074735;28;20160;-68
2021/01/09 10:30:39;;;;;;;40.07;19.30;;;4.10;1.00;;;;;;5074846;28;20199;-69
2021/01/09 10:33:05;;;;;;;31.80;17.20;;;3.50;99.90;;;;;;5074508;28;20644;-68
2021/01/09 10:35:31;;;;;;;34.42;16.63;;;3.30;1.00;;;;;;5074151;28;20165;-68
2021/01/09 10:37:57;;;;;;;40.97;19.40;;;3.30;99.90;;;;;;5074802;28;20172;-67
2021/01/09 10:40:22;;;;;;;37.10;18.57;;;3.40;99.90;;;;;;5074089;28;20449;-68
2021/01/09 10:42:48;;;;;;;31.40;17.43;;;3.40;99.90;;;;;;5074386;28;20713;-68
2021/01/09 10:45:15;;;;;;;33.93;17.27;;;3.50;1.00;;;;;;5074138;28;20510;-68
2021/01/09 10:47:40;;;;;;;33.95;19.58;;;3.40;1.00;;;;;;5074062;28;20209;-68
2021/01/09 10:50:07;;;;;;;37.87;18.17;;;3.30;99.90;;;;;;5074761;28;20200;-67
2021/01/09 10:52:33;;;;;;;33.28;17.92;;;3.20;1.00;;;;;;5074556;28;20286;-68
2021/01/09 10:54:59;;;;;;;31.03;17.90;;;3.20;99.90;;;;;;5074185;28;20165;-68
2021/01/09 10:57:24;;;;;;;34.07;17.33;;;3.30;99.90;;;;;;5073978;28;20410;-68
2021/01/09 10:59:50;;;;;;;37.40;19.10;;;3.50;99.90;;;;;;5073998;28;20428;-67
2021/01/09 11:02:15;;;;;;;39.33;18.67;;;3.30;27.30;;;;;;5073895;28;20226;-67
2021/01/09 11:04:42;;;;;;;43.93;20.50;;;3.40;99.90;;;;;;5074008;28;20171;-68
2021/01/09 11:07:07;;;;;;;43.83;19.70;;;3.80;1.00;;;;;;5074163;28;20164;-67
2021/01/09 11:09:33;;;;;;;36.80;18.80;;;3.60;1.00;;;;;;5073714;28;20607;-68
2021/01/09 11:11:59;;;;;;;40.37;21.50;;;3.90;1.00;;;;;;5073880;28;20175;-67
2021/01/09 11:14:24;;;;;;;36.10;19.27;;;4.20;99.90;;;;;;5074040;28;20172;-68
2021/01/09 11:16:59;;;;;;;42.67;20.63;;;4.30;99.90;;;;;;5073922;28;20172;-68
2021/01/09 11:19:25;;;;;;;39.80;19.65;;;4.10;99.90;;;;;;5073811;28;20208;-68
2021/01/09 11:21:50;;;;;;;43.90;20.80;;;4.40;99.90;;;;;;5073438;28;20247;-68
2021/01/09 11:24:16;;;;;;;45.63;19.87;;;3.90;99.90;;;;;;5073595;28;20455;-68
2021/01/09 11:26:41;;;;;;;37.50;19.50;;;3.80;1.00;;;;;;5073515;28;20533;-68
2021/01/09 11:29:07;;;;;;;48.63;20.30;;;3.90;1.00;;;;;;5073440;28;20188;-69
2021/01/09 11:31:33;;;;;;;49.57;23.57;;;4.30;99.90;;;;;;5073316;28;20641;-68
2021/01/09 11:33:58;;;;;;;50.43;20.73;;;4.10;99.90;;;;;;5073667;28;20195;-66
2021/01/09 11:36:24;;;;;;;50.10;20.37;;;4.20;99.90;;;;;;5073191;28;20178;-68
2021/01/09 11:38:49;;;;;;;49.10;21.27;;;3.70;99.90;;;;;;5072753;28;20544;-67
2021/01/09 11:41:16;;;;;;;48.33;24.60;;;3.80;1.00;;;;;;5073167;28;20180;-68
2021/01/09 11:43:42;;;;;;;50.20;24.02;;;4.20;1.00;;;;;;5073133;28;20243;-68
2021/01/09 11:46:09;;;;;;;53.90;24.85;;;4.10;99.90;;;;;;5073164;28;20168;-68
2021/01/09 11:48:35;;;;;;;52.15;25.35;;;4.00;99.90;;;;;;5072933;28;20191;-68
2021/01/09 11:51:01;;;;;;;63.57;25.47;;;3.90;1.00;;;;;;5073945;28;20177;-68
2021/01/09 11:53:27;;;;;;;61.43;28.37;;;3.80;1.00;;;;;;5073485;28;20410;-69
2021/01/09 11:55:52;;;;;;;59.90;27.47;;;4.00;99.90;;;;;;5073269;28;20214;-68
2021/01/09 11:58:18;;;;;;;53.33;25.23;;;4.30;1.00;;;;;;5072728;28;20412;-69
2021/01/09 12:00:47;;;;;;;64.63;27.17;;;4.00;1.00;;;;;;5073000;28;20242;-68
2021/01/09 12:03:13;;;;;;;63.70;29.55;;;4.00;1.00;;;;;;5073017;28;20164;-68
2021/01/09 12:05:39;;;;;;;76.83;29.17;;;3.60;1.00;;;;;;5072977;28;20213;-68
2021/01/09 12:08:05;;;;;;;80.05;30.30;;;3.60;99.90;;;;;;5073239;28;20384;-67
2021/01/09 12:10:32;;;;;;;69.50;28.97;;;3.40;1.00;;;;;;5072774;28;20196;-68
2021/01/09 12:12:58;;;;;;;68.43;29.35;;;3.50;1.00;;;;;;5072963;28;20260;-69
2021/01/09 12:15:23;;;;;;;65.33;28.00;;;3.40;1.00;;;;;;5072973;28;20195;-68
2021/01/09 12:17:49;;;;;;;75.07;31.47;;;3.30;1.00;;;;;;5072760;28;20924;-68
2021/01/09 12:20:15;;;;;;;71.13;29.23;;;3.70;1.00;;;;;;5072719;28;20257;-68
2021/01/09 12:22:41;;;;;;;71.77;31.23;;;3.30;99.90;;;;;;5072853;28;20171;-66
2021/01/09 12:25:07;;;;;;;79.10;32.67;;;3.20;1.00;;;;;;5073304;28;20164;-67
2021/01/09 12:27:33;;;;;;;69.03;29.95;;;3.30;1.00;;;;;;5072874;28;20167;-68
2021/01/09 12:29:59;;;;;;;84.97;31.33;;;3.10;1.00;;;;;;5072632;28;20684;-68
2021/01/09 12:32:25;;;;;;;85.53;31.33;;;3.20;99.90;;;;;;5072831;28;20175;-68
2021/01/09 12:34:50;;;;;;;77.70;31.80;;;3.20;1.00;;;;;;5072806;28;20649;-69
2021/01/09 12:37:16;;;;;;;86.13;32.03;;;3.20;99.90;;;;;;5073117;28;20434;-68
2021/01/09 12:39:41;;;;;;;80.13;30.70;;;3.10;99.90;;;;;;5072620;28;20700;-68
2021/01/09 12:42:08;;;;;;;76.77;30.93;;;3.20;34.30;;;;;;5072660;28;20645;-68
2021/01/09 12:44:34;;;;;;;77.25;29.77;;;3.10;99.90;;;;;;5072370;28;20167;-68
2021/01/09 12:47:00;;;;;;;62.93;26.80;;;3.10;1.00;;;;;;5072383;28;20157;-69